Servet Ana — TCMF7 — position and weather

sailwx.info

Track history (hours):
 
Tides and Currents Weather Stations Pressure Air Temp Water Temp Dewpoint Dewpoint Depression Visibility Wind Speed Wind Dir Waves Ship Positions

Servet Ana

Last reported at 2017-Jan-15 10:16 UTC. Time now 2017-Jan-18 12:03 UTC.
Position N 38°00' W 009°54'.

Length 179 m; draft 6.2 m.

Type: Cargo ship. MMSI: 271042643.

Date/timePositionNaut miles runAvg speedWind from/ knotsBaromVisibWave heightAir tempDewpointWater temp
2017-Jan-15 10:16N 38°00' W 009°54'1013.4
2017-Jan-15 09:32N 38°10' W 009°57'1313.3
2017-Jan-15 08:33N 38°22' W 010°01'1313.3
2017-Jan-15 07:33N 38°35' W 010°06'1313.2
2017-Jan-15 06:33N 38°48' W 010°07'1313.4
2017-Jan-15 05:33N 39°02' W 010°06'1313.2
2017-Jan-15 04:33N 39°15' W 010°06'  
2017-Jan-11 11:32N 43°33' W 001°56'2 1.6
2017-Jan-11 10:29N 43°35' W 001°57'4 0.2
2017-Jan-10 14:32N 43°35' W 001°51'1 0.8
2017-Jan-10 13:33N 43°34' W 001°50'2 1.8
2017-Jan-10 12:16N 43°37' W 001°50'2 2.1
2017-Jan-10 11:31N 43°38' W 001°51'8 0.8
2017-Jan-10 01:04N 43°47' W 001°49'2 0.8
2017-Jan-09 22:33N 43°46' W 001°52'8 1.9
2017-Jan-09 18:34N 43°42' W 001°42'1 0.4
2017-Jan-09 17:05N 43°43' W 001°43'0 0.5
2017-Jan-09 16:26N 43°43' W 001°43'3 0.6
2017-Jan-09 11:31N 43°45' W 001°40'1 0.6
2017-Jan-09 10:33N 43°44' W 001°41'1 0.9
2017-Jan-09 09:32N 43°44' W 001°42'4 4.5
2017-Jan-09 08:33N 43°42' W 001°48'4 2.0
2017-Jan-09 06:22N 43°40' W 001°53'0 0.4
2017-Jan-09 05:33N 43°40' W 001°53'2 0.5
2017-Jan-09 01:29N 43°38' W 001°51'0 0.3
2017-Jan-09 00:33N 43°38' W 001°51'0 0.1
2017-Jan-08 23:32N 43°38' W 001°50'0 0.3
2017-Jan-08 22:20N 43°38' W 001°50'0 0.1
2017-Jan-08 20:14N 43°39' W 001°50'0 0.0
2017-Jan-08 19:34N 43°39' W 001°50'0 0.2
2017-Jan-08 18:25N 43°39' W 001°50'0 0.3
2017-Jan-08 17:32N 43°39' W 001°50'0 0.4
2017-Jan-08 16:32N 43°39' W 001°49'0 0.4
2017-Jan-08 15:31N 43°40' W 001°49'1 0.4
2017-Jan-08 12:21N 43°41' W 001°49'0 0.4
2017-Jan-08 11:26N 43°41' W 001°49'0 0.3
2017-Jan-08 10:14N 43°41' W 001°49'0 0.2
2017-Jan-08 09:33N 43°41' W 001°48'0 0.2
2017-Jan-08 08:05N 43°41' W 001°48'0 0.3
2017-Jan-08 07:26N 43°41' W 001°48'0 0.4
2017-Jan-08 06:31N 43°42' W 001°47'0 0.4
2017-Jan-08 05:33N 43°42' W 001°47'0 0.3
2017-Jan-08 04:33N 43°42' W 001°47'0 0.2
2017-Jan-08 03:32N 43°42' W 001°46'0 0.1
2017-Jan-08 02:33N 43°42' W 001°46'0 0.3
2017-Jan-08 01:33N 43°42' W 001°46'0 0.4
2017-Jan-08 00:29N 43°42' W 001°45'0 0.4
2017-Jan-07 23:32N 43°42' W 001°45'1 0.6
2017-Jan-07 22:26N 43°43' W 001°44'1 0.5
2017-Jan-07 21:16N 43°43' W 001°44'1 0.4
2017-Jan-07 18:18N 43°44' W 001°43'1 0.3
2017-Jan-07 16:23N 43°45' W 001°43'1 0.1
2017-Jan-07 10:31N 43°45' W 001°43'9 8.9
2017-Jan-07 09:33N 43°38' W 001°37'8 5.4
2017-Jan-07 08:06N 43°32' W 001°31'0 0.0
2017-Jan-07 07:30N 43°32' W 001°31'0 0.0
2017-Jan-07 03:18N 43°32' W 001°31'0 0.0
2017-Jan-07 02:24N 43°32' W 001°31'0 0.0
2017-Jan-07 01:30N 43°32' W 001°31'0 0.0
2017-Jan-07 00:27N 43°32' W 001°31'0 0.0
2017-Jan-06 07:30N 43°32' W 001°31'0 0.0
2017-Jan-06 03:27N 43°32' W 001°31'0 0.0
2017-Jan-06 02:33N 43°32' W 001°31'0 0.0
2017-Jan-06 01:33N 43°32' W 001°31'0 0.0
2017-Jan-05 17:33N 43°32' W 001°31'0 0.0
2017-Jan-05 16:33N 43°32' W 001°31'0 0.0
2017-Jan-05 15:30N 43°32' W 001°31'0 0.0
2017-Jan-05 13:09N 43°32' W 001°31'0 0.0
2017-Jan-05 12:33N 43°32' W 001°31'0 0.0
2017-Jan-05 11:33N 43°32' W 001°31'0 0.0
2017-Jan-05 10:33N 43°32' W 001°31'  
Track history (hours):
 
Tides and Currents Weather Stations Pressure Air Temp Water Temp Dewpoint Dewpoint Depression Visibility Wind Speed Wind Dir Waves Ship Positions

Servet Ana

Last reported at 2017-Jan-15 10:16 UTC. Time now 2017-Jan-18 12:03 UTC.
Position N 38°00' W 009°54'.

Length 179 m; draft 6.2 m.

Type: Cargo ship. MMSI: 271042643.

Date/timePositionNaut miles runAvg speedWind from/ knotsBaromVisibWave heightAir tempDewpointWater temp
2017-Jan-15 10:16N 38°00' W 009°54'1013.4
2017-Jan-15 09:32N 38°10' W 009°57'1313.3
2017-Jan-15 08:33N 38°22' W 010°01'1313.3
2017-Jan-15 07:33N 38°35' W 010°06'1313.2
2017-Jan-15 06:33N 38°48' W 010°07'1313.4
2017-Jan-15 05:33N 39°02' W 010°06'1313.2
2017-Jan-15 04:33N 39°15' W 010°06'  
2017-Jan-11 11:32N 43°33' W 001°56'2 1.6
2017-Jan-11 10:29N 43°35' W 001°57'4 0.2
2017-Jan-10 14:32N 43°35' W 001°51'1 0.8
2017-Jan-10 13:33N 43°34' W 001°50'2 1.8
2017-Jan-10 12:16N 43°37' W 001°50'2 2.1
2017-Jan-10 11:31N 43°38' W 001°51'8 0.8
2017-Jan-10 01:04N 43°47' W 001°49'2 0.8
2017-Jan-09 22:33N 43°46' W 001°52'8 1.9
2017-Jan-09 18:34N 43°42' W 001°42'1 0.4
2017-Jan-09 17:05N 43°43' W 001°43'0 0.5
2017-Jan-09 16:26N 43°43' W 001°43'3 0.6
2017-Jan-09 11:31N 43°45' W 001°40'1 0.6
2017-Jan-09 10:33N 43°44' W 001°41'1 0.9
2017-Jan-09 09:32N 43°44' W 001°42'4 4.5
2017-Jan-09 08:33N 43°42' W 001°48'4 2.0
2017-Jan-09 06:22N 43°40' W 001°53'0 0.4
2017-Jan-09 05:33N 43°40' W 001°53'2 0.5
2017-Jan-09 01:29N 43°38' W 001°51'0 0.3
2017-Jan-09 00:33N 43°38' W 001°51'0 0.1
2017-Jan-08 23:32N 43°38' W 001°50'0 0.3
2017-Jan-08 22:20N 43°38' W 001°50'0 0.1
2017-Jan-08 20:14N 43°39' W 001°50'0 0.0
2017-Jan-08 19:34N 43°39' W 001°50'0 0.2
2017-Jan-08 18:25N 43°39' W 001°50'0 0.3
2017-Jan-08 17:32N 43°39' W 001°50'0 0.4
2017-Jan-08 16:32N 43°39' W 001°49'0 0.4
2017-Jan-08 15:31N 43°40' W 001°49'1 0.4
2017-Jan-08 12:21N 43°41' W 001°49'0 0.4
2017-Jan-08 11:26N 43°41' W 001°49'0 0.3
2017-Jan-08 10:14N 43°41' W 001°49'0 0.2
2017-Jan-08 09:33N 43°41' W 001°48'0 0.2
2017-Jan-08 08:05N 43°41' W 001°48'0 0.3
2017-Jan-08 07:26N 43°41' W 001°48'0 0.4
2017-Jan-08 06:31N 43°42' W 001°47'0 0.4
2017-Jan-08 05:33N 43°42' W 001°47'0 0.3
2017-Jan-08 04:33N 43°42' W 001°47'0 0.2
2017-Jan-08 03:32N 43°42' W 001°46'0 0.1
2017-Jan-08 02:33N 43°42' W 001°46'0 0.3
2017-Jan-08 01:33N 43°42' W 001°46'0 0.4
2017-Jan-08 00:29N 43°42' W 001°45'0 0.4
2017-Jan-07 23:32N 43°42' W 001°45'1 0.6
2017-Jan-07 22:26N 43°43' W 001°44'1 0.5
2017-Jan-07 21:16N 43°43' W 001°44'1 0.4
2017-Jan-07 18:18N 43°44' W 001°43'1 0.3
2017-Jan-07 16:23N 43°45' W 001°43'1 0.1
2017-Jan-07 10:31N 43°45' W 001°43'9 8.9
2017-Jan-07 09:33N 43°38' W 001°37'8 5.4
2017-Jan-07 08:06N 43°32' W 001°31'0 0.0
2017-Jan-07 07:30N 43°32' W 001°31'0 0.0
2017-Jan-07 03:18N 43°32' W 001°31'0 0.0
2017-Jan-07 02:24N 43°32' W 001°31'0 0.0
2017-Jan-07 01:30N 43°32' W 001°31'0 0.0
2017-Jan-07 00:27N 43°32' W 001°31'0 0.0
2017-Jan-06 07:30N 43°32' W 001°31'0 0.0
2017-Jan-06 03:27N 43°32' W 001°31'0 0.0
2017-Jan-06 02:33N 43°32' W 001°31'0 0.0
2017-Jan-06 01:33N 43°32' W 001°31'0 0.0
2017-Jan-05 17:33N 43°32' W 001°31'0 0.0
2017-Jan-05 16:33N 43°32' W 001°31'0 0.0
2017-Jan-05 15:30N 43°32' W 001°31'0 0.0
2017-Jan-05 13:09N 43°32' W 001°31'0 0.0
2017-Jan-05 12:33N 43°32' W 001°31'0 0.0
2017-Jan-05 11:33N 43°32' W 001°31'0 0.0
2017-Jan-05 10:33N 43°32' W 001°31'  

Dump ship's entire track history